Back to Top

Language: 

My Weather Underground Personal Weather Station Historical Data with Graphs...

Delerius Weather Station Historical Data
Daily Summary for February 2, 2018 Units:  English    Metric   Both
« Previous Day
Next Day »
Daily Weekly Monthly Yearly Custom
  High: Low: Average:
Temperature: 45.9 °F 31.1 °F 39.5 °F
Dew Point: 36.1 °F 28.7 °F 33.1 °F
Humidity: 93 % 65 % 78 %
Wind Speed: 15.0 mph 0.0 mph 5.9 mph
Wind Gust: 26.0 mph - -
Wind:- - NW
Pressure: 29.89 in 29.74 in -
Precipitation: 0.00 in    
Historical Graphs
 
 
Tabular Data for February 2, 2018
Time Temperature Dew Point Pressure Wind Wind Speed Wind Gust Humidity Rainfall Rate (Hourly) solar Conditions
00:00 39.0 °F 32.7 °F 29.75 in WNW 12.0 mph 18.0 mph 78 % 0.00 in 0 W/m2
00:05 39.0 °F 32.7 °F 29.75 in WNW 11.0 mph 20.0 mph 78 % 0.00 in 0 W/m2
00:10 38.8 °F 32.6 °F 29.75 in WNW 11.0 mph 19.0 mph 78 % 0.00 in 0 W/m2
00:15 38.8 °F 32.9 °F 29.75 in WNW 11.0 mph 19.0 mph 79 % 0.00 in 0 W/m2
00:20 38.8 °F 32.6 °F 29.75 in WNW 11.0 mph 20.0 mph 78 % 0.00 in 0 W/m2
00:25 38.8 °F 32.9 °F 29.75 in WNW 11.0 mph 19.0 mph 79 % 0.00 in 0 W/m2
00:30 39.0 °F 32.7 °F 29.75 in WNW 11.0 mph 15.0 mph 78 % 0.00 in 0 W/m2
00:35 39.2 °F 32.9 °F 29.75 in WNW 13.0 mph 23.0 mph 78 % 0.00 in 0 W/m2
00:40 39.4 °F 33.1 °F 29.75 in WNW 10.0 mph 16.0 mph 78 % 0.00 in 0 W/m2
00:45 39.4 °F 33.1 °F 29.75 in WNW 13.0 mph 22.0 mph 78 % 0.00 in 0 W/m2
00:50 39.6 °F 32.9 °F 29.75 in WNW 11.0 mph 20.0 mph 77 % 0.00 in 0 W/m2
00:55 39.7 °F 33.1 °F 29.75 in NW 13.0 mph 26.0 mph 77 % 0.00 in 0 W/m2
01:00 39.7 °F 33.1 °F 29.75 in WNW 15.0 mph 22.0 mph 77 % 0.00 in 0 W/m2
01:05 39.9 °F 33.3 °F 29.74 in WNW 13.0 mph 20.0 mph 77 % 0.00 in 0 W/m2
01:10 39.9 °F 33.0 °F 29.74 in WNW 14.0 mph 26.0 mph 76 % 0.00 in 0 W/m2
01:15 40.1 °F 33.1 °F 29.74 in WNW 12.0 mph 24.0 mph 76 % 0.00 in 0 W/m2
01:20 40.1 °F 33.1 °F 29.74 in WNW 11.0 mph 22.0 mph 76 % 0.00 in 0 W/m2
01:25 39.9 °F 33.0 °F 29.75 in WNW 11.0 mph 24.0 mph 76 % 0.00 in 0 W/m2
01:30 39.9 °F 33.0 °F 29.75 in WNW 8.0 mph 18.0 mph 76 % 0.00 in 0 W/m2
01:35 39.9 °F 33.0 °F 29.76 in NW 9.0 mph 20.0 mph 76 % 0.00 in 0 W/m2
01:40 40.1 °F 33.1 °F 29.75 in WNW 12.0 mph 23.0 mph 76 % 0.00 in 0 W/m2
01:45 40.3 °F 33.3 °F 29.76 in WNW 13.0 mph 22.0 mph 76 % 0.00 in 0 W/m2
01:50 40.3 °F 33.3 °F 29.76 in WNW 12.0 mph 20.0 mph 76 % 0.00 in 0 W/m2
01:55 40.3 °F 33.3 °F 29.76 in WNW 14.0 mph 23.0 mph 76 % 0.00 in 0 W/m2
02:00 40.5 °F 33.2 °F 29.77 in NW 15.0 mph 26.0 mph 75 % 0.00 in 0 W/m2
02:05 40.5 °F 33.2 °F 29.77 in NW 10.0 mph 15.0 mph 75 % 0.00 in 0 W/m2
02:10 40.6 °F 33.3 °F 29.77 in NW 8.0 mph 13.0 mph 75 % 0.00 in 0 W/m2
02:15 40.6 °F 33.3 °F 29.77 in NW 11.0 mph 25.0 mph 75 % 0.00 in 0 W/m2
02:20 40.6 °F 33.3 °F 29.77 in NW 11.0 mph 20.0 mph 75 % 0.00 in 0 W/m2
02:25 40.8 °F 33.5 °F 29.77 in NW 11.0 mph 18.0 mph 75 % 0.00 in 0 W/m2
02:30 40.8 °F 33.5 °F 29.78 in NW 10.0 mph 16.0 mph 75 % 0.00 in 0 W/m2
02:35 40.8 °F 33.5 °F 29.78 in NW 10.0 mph 19.0 mph 75 % 0.00 in 0 W/m2
02:40 40.8 °F 33.5 °F 29.78 in NW 9.0 mph 20.0 mph 75 % 0.00 in 0 W/m2
02:45 40.8 °F 33.5 °F 29.78 in NW 9.0 mph 15.0 mph 75 % 0.00 in 0 W/m2
02:51 40.8 °F 33.5 °F 29.78 in NW 10.0 mph 19.0 mph 75 % 0.00 in 0 W/m2
02:56 40.8 °F 33.5 °F 29.78 in NW 9.0 mph 18.0 mph 75 % 0.00 in 0 W/m2
03:01 40.8 °F 33.5 °F 29.78 in NW 10.0 mph 19.0 mph 75 % 0.00 in 0 W/m2
03:06 40.8 °F 33.5 °F 29.79 in NW 11.0 mph 20.0 mph 75 % 0.00 in 0 W/m2
03:11 40.8 °F 33.5 °F 29.79 in NW 9.0 mph 15.0 mph 75 % 0.00 in 0 W/m2
03:16 40.8 °F 33.5 °F 29.79 in NW 13.0 mph 23.0 mph 75 % 0.00 in 0 W/m2
03:21 40.6 °F 33.3 °F 29.79 in NW 13.0 mph 20.0 mph 75 % 0.00 in 0 W/m2
03:26 40.6 °F 33.3 °F 29.79 in NW 9.0 mph 18.0 mph 75 % 0.00 in 0 W/m2
03:31 40.6 °F 33.3 °F 29.79 in WNW 12.0 mph 21.0 mph 75 % 0.00 in 0 W/m2
03:36 40.6 °F 33.3 °F 29.79 in NW 11.0 mph 19.0 mph 75 % 0.00 in 0 W/m2
03:41 40.6 °F 33.3 °F 29.79 in NW 9.0 mph 18.0 mph 75 % 0.00 in 0 W/m2
03:46 40.6 °F 33.3 °F 29.79 in NW 8.0 mph 14.0 mph 75 % 0.00 in 0 W/m2
03:51 40.6 °F 33.3 °F 29.79 in NW 7.0 mph 16.0 mph 75 % 0.00 in 0 W/m2
03:56 40.6 °F 33.7 °F 29.79 in NW 8.0 mph 16.0 mph 76 % 0.00 in 0 W/m2
04:01 40.6 °F 33.7 °F 29.79 in NW 10.0 mph 19.0 mph 76 % 0.00 in 0 W/m2
04:06 40.6 °F 33.7 °F 29.79 in WNW 11.0 mph 21.0 mph 76 % 0.00 in 0 W/m2
04:11 40.6 °F 34.0 °F 29.80 in WNW 10.0 mph 19.0 mph 77 % 0.00 in 0 W/m2
04:16 40.6 °F 34.0 °F 29.80 in WNW 11.0 mph 18.0 mph 77 % 0.00 in 0 W/m2
04:21 40.6 °F 34.0 °F 29.80 in NW 8.0 mph 12.0 mph 77 % 0.00 in 0 W/m2
04:26 40.5 °F 34.1 °F 29.80 in NW 10.0 mph 15.0 mph 78 % 0.00 in 0 W/m2
04:31 40.5 °F 34.1 °F 29.80 in WNW 9.0 mph 15.0 mph 78 % 0.00 in 0 W/m2
04:36 40.5 °F 34.1 °F 29.80 in WNW 9.0 mph 16.0 mph 78 % 0.00 in 0 W/m2
04:41 40.5 °F 34.1 °F 29.80 in WNW 10.0 mph 19.0 mph 78 % 0.00 in 0 W/m2
04:46 40.5 °F 34.1 °F 29.80 in WNW 9.0 mph 15.0 mph 78 % 0.00 in 0 W/m2
04:51 40.5 °F 34.1 °F 29.81 in NW 7.0 mph 11.0 mph 78 % 0.00 in 0 W/m2
04:56 40.5 °F 34.1 °F 29.81 in WNW 8.0 mph 13.0 mph 78 % 0.00 in 0 W/m2
05:01 40.5 °F 34.1 °F 29.81 in WNW 10.0 mph 21.0 mph 78 % 0.00 in 0 W/m2
05:06 40.6 °F 34.3 °F 29.81 in NW 7.0 mph 13.0 mph 78 % 0.00 in 0 W/m2
05:11 40.6 °F 34.3 °F 29.81 in WNW 7.0 mph 15.0 mph 78 % 0.00 in 0 W/m2
05:16 40.6 °F 34.3 °F 29.81 in WNW 8.0 mph 13.0 mph 78 % 0.00 in 0 W/m2
05:21 40.5 °F 34.1 °F 29.81 in NW 9.0 mph 18.0 mph 78 % 0.00 in 0 W/m2
05:26 40.3 °F 34.0 °F 29.81 in WNW 8.0 mph 12.0 mph 78 % 0.00 in 0 W/m2
05:31 40.1 °F 33.8 °F 29.81 in WNW 8.0 mph 12.0 mph 78 % 0.00 in 0 W/m2
05:36 39.9 °F 33.6 °F 29.81 in WNW 11.0 mph 19.0 mph 78 % 0.00 in 0 W/m2
05:41 39.9 °F 33.6 °F 29.81 in WNW 10.0 mph 15.0 mph 78 % 0.00 in 0 W/m2
05:47 40.1 °F 33.8 °F 29.81 in WNW 11.0 mph 18.0 mph 78 % 0.00 in 0 W/m2
05:52 40.1 °F 33.8 °F 29.81 in NW 8.0 mph 16.0 mph 78 % 0.00 in 0 W/m2
05:57 40.1 °F 33.8 °F 29.82 in WNW 12.0 mph 21.0 mph 78 % 0.00 in 0 W/m2
06:02 40.1 °F 33.8 °F 29.82 in WNW 10.0 mph 16.0 mph 78 % 0.00 in 0 W/m2
06:07 40.1 °F 33.8 °F 29.82 in WNW 8.0 mph 13.0 mph 78 % 0.00 in 0 W/m2
06:12 40.1 °F 33.8 °F 29.82 in WNW 9.0 mph 15.0 mph 78 % 0.00 in 0 W/m2
06:17 39.9 °F 33.6 °F 29.82 in WNW 9.0 mph 18.0 mph 78 % 0.00 in 0 W/m2
06:22 39.9 °F 33.6 °F 29.82 in WNW 9.0 mph 14.0 mph 78 % 0.00 in 0 W/m2
06:27 39.9 °F 33.6 °F 29.82 in WNW 8.0 mph 15.0 mph 78 % 0.00 in 0 W/m2
06:32 39.9 °F 33.6 °F 29.83 in WNW 9.0 mph 18.0 mph 78 % 0.00 in 0 W/m2
06:37 40.1 °F 33.8 °F 29.82 in WNW 9.0 mph 14.0 mph 78 % 0.00 in 0 W/m2
06:42 40.1 °F 33.8 °F 29.83 in WNW 8.0 mph 14.0 mph 78 % 0.00 in 0 W/m2
06:47 40.1 °F 33.8 °F 29.83 in WNW 7.0 mph 13.0 mph 78 % 0.00 in 0 W/m2
06:52 40.3 °F 33.6 °F 29.83 in WNW 10.0 mph 15.0 mph 77 % 0.00 in 0 W/m2
06:57 40.5 °F 33.8 °F 29.83 in NW 11.0 mph 19.0 mph 77 % 0.00 in 0 W/m2
07:02 40.5 °F 33.8 °F 29.84 in WNW 8.0 mph 13.0 mph 77 % 0.00 in 0 W/m2
07:07 40.5 °F 33.8 °F 29.84 in NW 12.0 mph 20.0 mph 77 % 0.00 in 0 W/m2
07:12 40.6 °F 34.0 °F 29.84 in NW 10.0 mph 24.0 mph 77 % 0.00 in 0 W/m2
07:17 40.6 °F 33.7 °F 29.84 in NW 10.0 mph 15.0 mph 76 % 0.00 in 0 W/m2
07:22 40.6 °F 34.0 °F 29.84 in NW 9.0 mph 18.0 mph 77 % 0.00 in 0 W/m2
07:27 40.5 °F 33.8 °F 29.85 in WNW 11.0 mph 15.0 mph 77 % 0.00 in 0 W/m2
07:32 40.5 °F 33.8 °F 29.84 in NW 7.0 mph 13.0 mph 77 % 0.00 in 0 W/m2
07:37 40.5 °F 33.8 °F 29.85 in WNW 9.0 mph 15.0 mph 77 % 0.00 in 0 W/m2
07:42 40.5 °F 33.8 °F 29.85 in NW 9.0 mph 16.0 mph 77 % 0.00 in 0 W/m2
07:47 40.5 °F 33.8 °F 29.85 in NW 7.0 mph 14.0 mph 77 % 0.00 in 0 W/m2
07:52 40.5 °F 33.8 °F 29.85 in WNW 10.0 mph 16.0 mph 77 % 0.00 in 0 W/m2
07:57 40.5 °F 33.8 °F 29.86 in NW 9.0 mph 14.0 mph 77 % 0.00 in 5 W/m2
08:02 40.5 °F 33.8 °F 29.85 in WNW 8.0 mph 12.0 mph 77 % 0.00 in 5 W/m2
08:07 40.3 °F 34.0 °F 29.86 in WNW 10.0 mph 18.0 mph 78 % 0.00 in 7 W/m2
08:12 40.3 °F 34.0 °F 29.86 in NW 7.0 mph 16.0 mph 78 % 0.00 in 11 W/m2
08:17 40.3 °F 34.0 °F 29.86 in NW 6.0 mph 12.0 mph 78 % 0.00 in 16 W/m2
08:22 40.3 °F 34.0 °F 29.86 in WNW 6.0 mph 12.0 mph 78 % 0.00 in 14 W/m2
08:27 40.3 °F 34.0 °F 29.87 in WNW 7.0 mph 12.0 mph 78 % 0.00 in 14 W/m2
08:32 40.5 °F 34.1 °F 29.87 in NW 5.0 mph 8.0 mph 78 % 0.00 in 19 W/m2
08:38 40.5 °F 33.8 °F 29.87 in NW 8.0 mph 14.0 mph 77 % 0.00 in 32 W/m2
08:43 40.5 °F 34.1 °F 29.86 in NW 8.0 mph 12.0 mph 78 % 0.00 in 35 W/m2
08:48 40.6 °F 34.3 °F 29.87 in NW 6.0 mph 13.0 mph 78 % 0.00 in 35 W/m2
08:53 40.6 °F 34.0 °F 29.87 in NW 9.0 mph 15.0 mph 77 % 0.00 in 42 W/m2
08:58 40.6 °F 34.0 °F 29.87 in NW 8.0 mph 15.0 mph 77 % 0.00 in 32 W/m2
09:03 40.8 °F 34.2 °F 29.86 in NW 11.0 mph 15.0 mph 77 % 0.00 in 47 W/m2
09:08 40.8 °F 34.2 °F 29.86 in NW 9.0 mph 19.0 mph 77 % 0.00 in 53 W/m2
09:13 40.8 °F 34.2 °F 29.86 in NW 10.0 mph 18.0 mph 77 % 0.00 in 62 W/m2
09:18 41.0 °F 34.3 °F 29.86 in NW 6.0 mph 11.0 mph 77 % 0.00 in 58 W/m2
09:23 41.0 °F 34.3 °F 29.87 in NW 7.0 mph 12.0 mph 77 % 0.00 in 54 W/m2
09:28 41.0 °F 34.3 °F 29.87 in WNW 8.0 mph 15.0 mph 77 % 0.00 in 72 W/m2
09:33 41.0 °F 34.3 °F 29.87 in NW 7.0 mph 13.0 mph 77 % 0.00 in 79 W/m2
09:38 41.0 °F 34.3 °F 29.87 in WNW 8.0 mph 12.0 mph 77 % 0.00 in 84 W/m2
09:43 41.0 °F 34.3 °F 29.87 in WNW 11.0 mph 18.0 mph 77 % 0.00 in 83 W/m2
09:48 41.2 °F 34.5 °F 29.88 in NW 8.0 mph 15.0 mph 77 % 0.00 in 137 W/m2
09:53 41.4 °F 34.7 °F 29.88 in WNW 8.0 mph 12.0 mph 77 % 0.00 in 144 W/m2
09:58 41.5 °F 34.9 °F 29.88 in NW 9.0 mph 15.0 mph 77 % 0.00 in 186 W/m2
10:03 41.7 °F 34.7 °F 29.88 in NW 9.0 mph 15.0 mph 76 % 0.00 in 202 W/m2
10:08 42.1 °F 35.1 °F 29.88 in NW 6.0 mph 12.0 mph 76 % 0.00 in 213 W/m2
10:13 42.4 °F 35.4 °F 29.88 in NW 7.0 mph 11.0 mph 76 % 0.00 in 125 W/m2
10:18 42.8 °F 35.4 °F 29.88 in NW 8.0 mph 18.0 mph 75 % 0.00 in 294 W/m2
10:23 43.0 °F 35.3 °F 29.88 in NW 12.0 mph 18.0 mph 74 % 0.00 in 213 W/m2
10:28 42.8 °F 35.1 °F 29.88 in NW 12.0 mph 21.0 mph 74 % 0.00 in 128 W/m2
10:33 42.6 °F 34.9 °F 29.88 in NW 8.0 mph 14.0 mph 74 % 0.00 in 97 W/m2
10:38 42.4 °F 34.7 °F 29.88 in NW 9.0 mph 14.0 mph 74 % 0.00 in 95 W/m2
10:43 42.4 °F 34.7 °F 29.88 in NW 9.0 mph 16.0 mph 74 % 0.00 in 118 W/m2
10:48 42.4 °F 34.7 °F 29.89 in NW 10.0 mph 20.0 mph 74 % 0.00 in 91 W/m2
10:53 42.4 °F 34.7 °F 29.89 in NW 6.0 mph 13.0 mph 74 % 0.00 in 125 W/m2
10:58 42.4 °F 35.1 °F 29.89 in NW 9.0 mph 15.0 mph 75 % 0.00 in 202 W/m2
11:03 42.6 °F 34.9 °F 29.89 in NW 10.0 mph 18.0 mph 74 % 0.00 in 163 W/m2
11:08 42.6 °F 34.9 °F 29.89 in NNW 10.0 mph 16.0 mph 74 % 0.00 in 156 W/m2
11:13 42.8 °F 35.1 °F 29.88 in NW 8.0 mph 13.0 mph 74 % 0.00 in 281 W/m2
11:18 43.0 °F 35.3 °F 29.88 in NW 8.0 mph 12.0 mph 74 % 0.00 in 336 W/m2
11:24 43.2 °F 35.1 °F 29.89 in NW 9.0 mph 18.0 mph 73 % 0.00 in 148 W/m2
11:29 43.2 °F 35.1 °F 29.89 in NW 8.0 mph 14.0 mph 73 % 0.00 in 171 W/m2
11:34 43.3 °F 35.3 °F 29.89 in NW 8.0 mph 12.0 mph 73 % 0.00 in 178 W/m2
11:39 43.3 °F 35.3 °F 29.89 in NW 8.0 mph 18.0 mph 73 % 0.00 in 176 W/m2
11:44 43.5 °F 35.4 °F 29.89 in NW 9.0 mph 14.0 mph 73 % 0.00 in 410 W/m2
11:49 43.9 °F 35.8 °F 29.88 in NW 8.0 mph 13.0 mph 73 % 0.00 in 306 W/m2
11:54 44.1 °F 35.6 °F 29.89 in NW 8.0 mph 14.0 mph 72 % 0.00 in 127 W/m2
11:59 43.9 °F 35.4 °F 29.89 in NW 7.0 mph 12.0 mph 72 % 0.00 in 107 W/m2
12:04 43.7 °F 35.3 °F 29.89 in NW 6.0 mph 12.0 mph 72 % 0.00 in 116 W/m2
12:09 43.5 °F 35.1 °F 29.89 in NW 8.0 mph 14.0 mph 72 % 0.00 in 77 W/m2
12:14 43.3 °F 35.3 °F 29.88 in NW 7.0 mph 12.0 mph 73 % 0.00 in 91 W/m2
12:19 43.2 °F 35.4 °F 29.88 in NNW 5.0 mph 9.0 mph 74 % 0.00 in 113 W/m2
12:24 43.2 °F 35.4 °F 29.88 in NW 6.0 mph 11.0 mph 74 % 0.00 in 83 W/m2
12:29 43.2 °F 35.4 °F 29.88 in NW 6.0 mph 10.0 mph 74 % 0.00 in 79 W/m2
12:34 43.2 °F 35.4 °F 29.88 in NW 9.0 mph 15.0 mph 74 % 0.00 in 77 W/m2
12:39 43.2 °F 35.4 °F 29.88 in NW 7.0 mph 12.0 mph 74 % 0.00 in 97 W/m2
12:44 43.2 °F 35.8 °F 29.88 in NW 6.0 mph 12.0 mph 75 % 0.00 in 86 W/m2
12:49 43.2 °F 35.8 °F 29.88 in NW 3.0 mph 8.0 mph 75 % 0.00 in 114 W/m2
12:54 43.2 °F 35.8 °F 29.88 in NW 6.0 mph 11.0 mph 75 % 0.00 in 86 W/m2
12:59 43.3 °F 35.6 °F 29.88 in NNW 4.0 mph 10.0 mph 74 % 0.00 in 146 W/m2
13:04 43.5 °F 35.8 °F 29.88 in NNW 8.0 mph 13.0 mph 74 % 0.00 in 165 W/m2
13:09 43.9 °F 36.1 °F 29.88 in NNW 6.0 mph 10.0 mph 74 % 0.00 in 403 W/m2
13:14 44.1 °F 36.0 °F 29.88 in NNW 3.0 mph 7.0 mph 73 % 0.00 in 195 W/m2
13:19 44.2 °F 35.8 °F 29.88 in NNW 6.0 mph 10.0 mph 72 % 0.00 in 213 W/m2
13:24 44.4 °F 36.0 °F 29.88 in NNW 5.0 mph 10.0 mph 72 % 0.00 in 178 W/m2
13:29 44.4 °F 35.6 °F 29.87 in NNW 6.0 mph 10.0 mph 71 % 0.00 in 102 W/m2
13:34 44.2 °F 35.1 °F 29.88 in NNW 5.0 mph 10.0 mph 70 % 0.00 in 158 W/m2
13:39 44.4 °F 35.6 °F 29.88 in NW 7.0 mph 13.0 mph 71 % 0.00 in 339 W/m2
13:44 44.8 °F 35.6 °F 29.88 in NNW 8.0 mph 12.0 mph 70 % 0.00 in 490 W/m2
13:49 45.3 °F 35.7 °F 29.87 in NNW 7.0 mph 11.0 mph 69 % 0.00 in 420 W/m2
13:54 45.9 °F 35.5 °F 29.87 in North 7.0 mph 12.0 mph 67 % 0.00 in 320 W/m2
13:59 45.9 °F 35.1 °F 29.87 in NNW 5.0 mph 10.0 mph 66 % 0.00 in 79 W/m2
14:04 45.9 °F 35.1 °F 29.87 in NNW 5.0 mph 10.0 mph 66 % 0.00 in 309 W/m2
14:09 45.7 °F 34.6 °F 29.88 in NNW 6.0 mph 11.0 mph 65 % 0.00 in 167 W/m2
14:14 45.5 °F 34.8 °F 29.87 in NNW 6.0 mph 10.0 mph 66 % 0.00 in 156 W/m2
14:19 45.5 °F 35.2 °F 29.87 in NW 5.0 mph 9.0 mph 67 % 0.00 in 262 W/m2
14:20 45.7 °F 35.3 °F 29.87 in NW 4.0 mph 9.0 mph 67 % 0.00 in 262 W/m2
14:25 45.5 °F 34.8 °F 29.87 in NNW 8.0 mph 13.0 mph 66 % 0.00 in 279 W/m2
14:30 45.3 °F 34.6 °F 29.87 in NNW 7.0 mph 11.0 mph 66 % 0.00 in 285 W/m2
14:35 45.3 °F 34.6 °F 29.88 in NW 7.0 mph 12.0 mph 66 % 0.00 in 130 W/m2
14:40 45.3 °F 34.6 °F 29.87 in NNW 6.0 mph 9.0 mph 66 % 0.00 in 218 W/m2
14:45 45.1 °F 34.5 °F 29.87 in NW 6.0 mph 10.0 mph 66 % 0.00 in 95 W/m2
14:50 45.0 °F 34.3 °F 29.88 in NNW 6.0 mph 11.0 mph 66 % 0.00 in 120 W/m2
14:55 45.0 °F 34.7 °F 29.87 in NW 5.0 mph 10.0 mph 67 % 0.00 in 74 W/m2
15:00 44.8 °F 34.5 °F 29.88 in NW 6.0 mph 11.0 mph 67 % 0.00 in 54 W/m2
15:05 44.4 °F 34.1 °F 29.87 in NW 6.0 mph 11.0 mph 67 % 0.00 in 79 W/m2
15:10 44.2 °F 34.0 °F 29.88 in NW 3.0 mph 7.0 mph 67 % 0.00 in 42 W/m2
15:15 44.1 °F 34.2 °F 29.88 in NW 4.0 mph 8.0 mph 68 % 0.00 in 51 W/m2
15:20 44.1 °F 34.5 °F 29.88 in NW 3.0 mph 6.0 mph 69 % 0.00 in 72 W/m2
15:26 44.1 °F 34.5 °F 29.87 in NNW 3.0 mph 8.0 mph 69 % 0.00 in 123 W/m2
15:31 44.1 °F 34.5 °F 29.88 in NW 4.0 mph 8.0 mph 69 % 0.00 in 167 W/m2
15:36 44.1 °F 34.5 °F 29.87 in NW 6.0 mph 10.0 mph 69 % 0.00 in 54 W/m2
15:41 44.1 °F 34.2 °F 29.88 in NW 3.0 mph 9.0 mph 68 % 0.00 in 76 W/m2
15:46 44.1 °F 34.5 °F 29.87 in NW 5.0 mph 8.0 mph 69 % 0.00 in 44 W/m2
15:51 44.2 °F 34.7 °F 29.87 in NW 3.0 mph 8.0 mph 69 % 0.00 in 53 W/m2
15:56 44.2 °F 34.7 °F 29.87 in NW 4.0 mph 7.0 mph 69 % 0.00 in 39 W/m2
16:01 44.1 °F 34.5 °F 29.87 in NW 3.0 mph 5.0 mph 69 % 0.00 in 40 W/m2
16:06 43.9 °F 34.7 °F 29.87 in NNW 2.0 mph 5.0 mph 70 % 0.00 in 26 W/m2
16:11 43.5 °F 34.4 °F 29.87 in NW 3.0 mph 6.0 mph 70 % 0.00 in 25 W/m2
16:16 43.3 °F 34.6 °F 29.87 in NW 1.0 mph 5.0 mph 71 % 0.00 in 19 W/m2
16:21 43.2 °F 34.7 °F 29.87 in NW 1.0 mph 3.0 mph 72 % 0.00 in 19 W/m2
16:26 43.0 °F 34.6 °F 29.87 in NW 1.0 mph 2.0 mph 72 % 0.00 in 21 W/m2
16:31 43.0 °F 34.6 °F 29.87 in NW 1.0 mph 4.0 mph 72 % 0.00 in 14 W/m2
16:36 42.6 °F 34.6 °F 29.87 in Calm   1.0 mph 73 % 0.00 in 11 W/m2
16:41 42.4 °F 34.4 °F 29.87 in NW 1.0 mph 2.0 mph 73 % 0.00 in 9 W/m2
16:46 42.1 °F 34.0 °F 29.87 in NW 3.0 mph 7.0 mph 73 % 0.00 in 7 W/m2
16:51 41.7 °F 33.7 °F 29.87 in NW 2.0 mph 5.0 mph 73 % 0.00 in 5 W/m2
16:56 41.4 °F 33.7 °F 29.87 in NW 1.0 mph 3.0 mph 74 % 0.00 in 0 W/m2
17:01 41.2 °F 33.5 °F 29.86 in NW 2.0 mph 4.0 mph 74 % 0.00 in 0 W/m2
17:06 40.6 °F 33.3 °F 29.87 in NW 2.0 mph 5.0 mph 75 % 0.00 in 0 W/m2
17:11 40.5 °F 33.5 °F 29.87 in NW 2.0 mph 6.0 mph 76 % 0.00 in 0 W/m2
17:16 40.3 °F 33.3 °F 29.87 in NW 1.0 mph 2.0 mph 76 % 0.00 in 0 W/m2
17:21 40.1 °F 33.1 °F 29.87 in WNW 1.0 mph 5.0 mph 76 % 0.00 in 0 W/m2
17:26 39.7 °F 33.1 °F 29.87 in NW 1.0 mph 4.0 mph 77 % 0.00 in 0 W/m2
17:31 39.6 °F 32.9 °F 29.87 in NW 1.0 mph 2.0 mph 77 % 0.00 in 0 W/m2
17:36 39.2 °F 32.9 °F 29.87 in Calm   1.0 mph 78 % 0.00 in 0 W/m2
17:41 39.0 °F 32.7 °F 29.87 in Calm   2.0 mph 78 % 0.00 in 0 W/m2
17:46 38.7 °F 32.4 °F 29.87 in Calm     78 % 0.00 in 0 W/m2
17:51 38.5 °F 32.2 °F 29.87 in Calm   1.0 mph 78 % 0.00 in 0 W/m2
17:57 38.1 °F 32.2 °F 29.88 in Calm     79 % 0.00 in 0 W/m2
18:01 37.8 °F 31.8 °F 29.87 in Calm     79 % 0.00 in 0 W/m2
18:07 37.4 °F 31.8 °F 29.87 in Calm   1.0 mph 80 % 0.00 in 0 W/m2
18:12 37.0 °F 31.8 °F 29.87 in WNW 2.0 mph 5.0 mph 81 % 0.00 in 0 W/m2
18:17 36.9 °F 31.9 °F 29.88 in NW 2.0 mph 4.0 mph 82 % 0.00 in 0 W/m2
18:22 36.9 °F 31.9 °F 29.88 in Calm   1.0 mph 82 % 0.00 in 0 W/m2
18:27 36.7 °F 32.0 °F 29.88 in Calm   1.0 mph 83 % 0.00 in 0 W/m2
18:32 36.7 °F 32.0 °F 29.88 in Calm     83 % 0.00 in 0 W/m2
18:37 36.3 °F 31.7 °F 29.87 in Calm     83 % 0.00 in 0 W/m2
18:42 36.1 °F 31.5 °F 29.87 in Calm     83 % 0.00 in 0 W/m2
18:47 35.8 °F 31.1 °F 29.87 in Calm   1.0 mph 83 % 0.00 in 0 W/m2
18:52 35.6 °F 30.9 °F 29.87 in Calm     83 % 0.00 in 0 W/m2
18:57 35.2 °F 30.9 °F 29.87 in Calm   1.0 mph 84 % 0.00 in 0 W/m2
19:02 35.1 °F 30.7 °F 29.87 in Calm     84 % 0.00 in 0 W/m2
19:07 34.9 °F 30.8 °F 29.87 in Calm   1.0 mph 85 % 0.00 in 0 W/m2
19:12 34.7 °F 30.7 °F 29.87 in Calm     85 % 0.00 in 0 W/m2
19:17 34.5 °F 30.8 °F 29.87 in Calm     86 % 0.00 in 0 W/m2
19:22 34.3 °F 30.6 °F 29.87 in Calm     86 % 0.00 in 0 W/m2
19:27 34.0 °F 30.2 °F 29.86 in Calm     86 % 0.00 in 0 W/m2
19:32 33.6 °F 29.9 °F 29.86 in Calm     86 % 0.00 in 0 W/m2
19:37 33.4 °F 29.7 °F 29.86 in Calm     86 % 0.00 in 0 W/m2
19:42 33.3 °F 29.8 °F 29.86 in Calm     87 % 0.00 in 0 W/m2
19:47 33.3 °F 30.1 °F 29.86 in Calm     88 % 0.00 in 0 W/m2
19:52 33.1 °F 29.9 °F 29.86 in Calm     88 % 0.00 in 0 W/m2
19:57 32.9 °F 29.7 °F 29.86 in Calm     88 % 0.00 in 0 W/m2
20:02 32.7 °F 29.6 °F 29.86 in Calm     88 % 0.00 in 0 W/m2
20:07 32.5 °F 29.4 °F 29.86 in Calm     88 % 0.00 in 0 W/m2
20:12 32.4 °F 29.2 °F 29.86 in Calm     88 % 0.00 in 0 W/m2
20:17 32.2 °F 29.0 °F 29.86 in Calm     88 % 0.00 in 0 W/m2
20:22 32.2 °F 29.3 °F 29.86 in Calm     89 % 0.00 in 0 W/m2
20:27 32.0 °F 29.1 °F 29.86 in Calm     89 % 0.00 in 0 W/m2
20:32 31.8 °F 28.9 °F 29.86 in Calm   1.0 mph 89 % 0.00 in 0 W/m2
20:37 31.8 °F 29.2 °F 29.86 in Calm     90 % 0.00 in 0 W/m2
20:42 31.8 °F 28.9 °F 29.86 in Calm     89 % 0.00 in 0 W/m2
20:47 31.6 °F 28.8 °F 29.86 in Calm     89 % 0.00 in 0 W/m2
20:52 31.5 °F 28.9 °F 29.86 in Calm     90 % 0.00 in 0 W/m2
20:57 31.5 °F 28.9 °F 29.85 in Calm   1.0 mph 90 % 0.00 in 0 W/m2
21:02 31.5 °F 28.9 °F 29.85 in Calm     90 % 0.00 in 0 W/m2
21:08 31.5 °F 29.1 °F 29.85 in West 1.0 mph 3.0 mph 91 % 0.00 in 0 W/m2
21:13 31.6 °F 29.3 °F 29.85 in WNW 2.0 mph 5.0 mph 91 % 0.00 in 0 W/m2
21:18 31.8 °F 29.5 °F 29.85 in Calm   3.0 mph 91 % 0.00 in 0 W/m2
21:23 32.2 °F 30.1 °F 29.85 in Calm     92 % 0.00 in 0 W/m2
21:28 32.2 °F 29.8 °F 29.84 in Calm     91 % 0.00 in 0 W/m2
21:33 31.8 °F 29.5 °F 29.84 in Calm     91 % 0.00 in 0 W/m2
21:38 31.8 °F 29.5 °F 29.84 in Calm     91 % 0.00 in 0 W/m2
21:43 31.6 °F 29.3 °F 29.84 in Calm     91 % 0.00 in 0 W/m2
21:48 31.5 °F 29.1 °F 29.84 in Calm     91 % 0.00 in 0 W/m2
21:53 31.3 °F 28.7 °F 29.84 in Calm     90 % 0.00 in 0 W/m2
21:58 31.1 °F 28.8 °F 29.84 in WNW 1.0 mph 4.0 mph 91 % 0.00 in 0 W/m2
22:03 31.3 °F 29.0 °F 29.84 in WNW 2.0 mph 4.0 mph 91 % 0.00 in 0 W/m2
22:08 31.5 °F 29.4 °F 29.84 in Calm   3.0 mph 92 % 0.00 in 0 W/m2
22:13 31.5 °F 29.4 °F 29.84 in Calm     92 % 0.00 in 0 W/m2
22:18 31.5 °F 29.4 °F 29.84 in Calm   1.0 mph 92 % 0.00 in 0 W/m2
22:23 31.6 °F 29.6 °F 29.84 in Calm   1.0 mph 92 % 0.00 in 0 W/m2
22:28 31.6 °F 29.6 °F 29.83 in Calm   1.0 mph 92 % 0.00 in 0 W/m2
22:33 31.8 °F 29.8 °F 29.83 in Calm   1.0 mph 92 % 0.00 in 0 W/m2
22:38 31.6 °F 29.6 °F 29.83 in Calm   1.0 mph 92 % 0.00 in 0 W/m2
22:43 31.6 °F 29.6 °F 29.83 in WNW 1.0 mph 4.0 mph 92 % 0.00 in 0 W/m2
22:48 31.8 °F 30.0 °F 29.83 in WNW 2.0 mph 5.0 mph 93 % 0.00 in 0 W/m2
22:53 31.8 °F 30.0 °F 29.83 in WNW 4.0 mph 5.0 mph 93 % 0.00 in 0 W/m2
22:58 32.2 °F 30.4 °F 29.83 in WNW 4.0 mph 6.0 mph 93 % 0.00 in 0 W/m2
23:03 32.4 °F 30.6 °F 29.83 in WNW 3.0 mph 6.0 mph 93 % 0.00 in 0 W/m2
23:08 32.5 °F 30.7 °F 29.83 in WNW 4.0 mph 6.0 mph 93 % 0.00 in 0 W/m2
23:13 32.5 °F 30.7 °F 29.83 in WNW 1.0 mph 4.0 mph 93 % 0.00 in 0 W/m2
23:18 32.7 °F 30.9 °F 29.83 in Calm   3.0 mph 93 % 0.00 in 0 W/m2
23:24 32.7 °F 30.9 °F 29.82 in NW 4.0 mph 5.0 mph 93 % 0.00 in 0 W/m2
23:29 32.9 °F 31.1 °F 29.82 in WNW 1.0 mph 2.0 mph 93 % 0.00 in 0 W/m2
23:34 32.9 °F 31.1 °F 29.82 in Calm     93 % 0.00 in 0 W/m2
23:39 32.7 °F 30.7 °F 29.82 in Calm     92 % 0.00 in 0 W/m2
23:44 32.5 °F 30.5 °F 29.81 in Calm     92 % 0.00 in 0 W/m2
23:49 32.4 °F 30.3 °F 29.81 in Calm   1.0 mph 92 % 0.00 in 0 W/m2
23:54 32.4 °F 30.3 °F 29.81 in Calm   1.0 mph 92 % 0.00 in 0 W/m2
23:59 32.2 °F 30.1 °F 29.81 in Calm     92 % 0.00 in 0 W/m2
Delerius-Weather
Compliments of Weather Underground - 2.25 mb

Data updates at regular intervals.